メインページ
METAR-TAF:

METAR-TAF

空港 :

サンフランシスコ, カリフォルニア州, アメリカ合衆国

サンフランシスコ国際空港

緯度: 37-37-11N, 経度: 122-21-53W, 海抜: 3m

現時点の気象観測

当レポートは37分前の21:56(UTC)に作成
西/北西の風 18kt
気温 23°C
湿度 53%
気圧 1016 hPa
視程: 16.1km
高度1200ftの雲はほとんどない

METAR: KSFO 262156Z 30018KT 10SM FEW012 23/13 A3000 RMK AO2 SLP159 T02280128 $

時間: 15:33 (22:33 UTC)

予報

当レポートは1時間38分前の20:55(UTC)に作成
予報は26日の 21時(UTC)から 27日の 24時(UTC)まで有効
西/北西の風 14kt
視程: 10km
晴天
27日の 0300時(UTC)から
西の風 12kt
視程: 10km
高度1500ftの雲はほとんどない
27日の 0800時(UTC)から
西/北西の風 7kt
視程: 10km
高度1500ftの雲は散在している
27日の 1100時(UTC)から
西の風 5kt
視程: 10km
高度1200ftの千切れ雲あり
27日の 1600時(UTC)から
北西の風 5kt
視程: 10km
高度1200ftの雲はほとんどない
27日の 2100時(UTC)から
西/北西の風 14kt
視程: 10km
晴天

TAF: KSFO 262055Z 2621/2724 30014KT P6SM SKC FM270300 28012KT P6SM FEW015 FM270800 29007KT P6SM SCT015 FM271100 28005KT P6SM BKN012 FM271600 31005KT P6SM FEW012 FM272100 30014KT P6SM SKC

4,000以上の空港の気象観測と天気予報(METAR報とTAF報)

利用可能な観測所は地図上に黄色い丸と赤い丸で示す。

丸の上にカーソルを重ねると観測所名を参照できる。

次にクリックすると気象観測と天気予報を参照できる。

マップの切り替え:黒色「×」印の緑ボタンをクリックして拡大、「-」印の緑ボタンをクリックして縮小、緑色の三角印をクリックして隣りの地図に切り替え


METAR-TAF: